createdAt,value
2023-03-04T00:01:45.708Z,3.92
2023-03-04T00:04:14.076Z,3.82
2023-03-04T00:06:42.317Z,3.80
2023-03-04T00:09:12.299Z,3.78
2023-03-04T00:11:40.622Z,3.75
2023-03-04T00:14:09.094Z,3.68
2023-03-04T00:16:37.469Z,3.62
2023-03-04T00:19:06.675Z,3.49
2023-03-04T00:21:34.974Z,3.42
2023-03-04T00:24:03.329Z,3.42
2023-03-04T00:26:33.283Z,3.42
2023-03-04T00:29:01.703Z,3.41
2023-03-04T00:31:30.247Z,3.38
2023-03-04T00:33:58.771Z,3.42
2023-03-04T00:36:27.243Z,3.52
2023-03-04T00:38:55.706Z,3.60
2023-03-04T00:41:24.122Z,3.67
2023-03-04T00:43:54.009Z,3.64
2023-03-04T00:46:22.645Z,3.61
2023-03-04T00:48:51.148Z,3.61
2023-03-04T00:51:19.548Z,3.57
2023-03-04T00:53:48.038Z,3.54
2023-03-04T00:56:16.350Z,3.56
2023-03-04T00:58:44.703Z,3.59
2023-03-04T01:01:14.455Z,3.61
2023-03-04T01:03:42.837Z,3.65
2023-03-04T01:06:11.314Z,3.66
2023-03-04T01:08:40.080Z,3.61
2023-03-04T01:11:08.384Z,3.50
2023-03-04T01:13:36.922Z,3.39
2023-03-04T01:16:05.940Z,3.27
2023-03-04T01:18:36.169Z,3.24
2023-03-04T01:21:04.709Z,3.26
2023-03-04T01:23:33.395Z,3.28
2023-03-04T01:26:01.700Z,3.34
2023-03-04T01:28:30.065Z,3.32
2023-03-04T01:30:59.576Z,3.20
2023-03-04T01:33:27.913Z,3.08
2023-03-04T01:35:58.151Z,3.02
2023-03-04T01:38:26.709Z,3.00
2023-03-04T01:40:55.387Z,3.00
2023-03-04T01:43:26.707Z,3.05
2023-03-04T01:45:56.740Z,3.02
2023-03-04T01:48:27.918Z,2.95
2023-03-04T01:51:02.968Z,2.85
2023-03-04T01:53:33.027Z,2.79
2023-03-04T01:56:05.764Z,2.79
2023-03-04T01:58:34.367Z,2.77
2023-03-04T02:01:02.710Z,2.76
2023-03-04T02:03:31.530Z,2.72
2023-03-04T02:06:01.413Z,2.68
2023-03-04T02:08:29.781Z,2.55
2023-03-04T02:10:58.495Z,2.50
2023-03-04T02:13:26.919Z,2.46
2023-03-04T02:15:55.425Z,2.40
2023-03-04T02:18:25.566Z,2.30
2023-03-04T02:21:02.708Z,2.29
2023-03-04T02:23:40.885Z,2.24
2023-03-04T02:26:16.441Z,2.22
2023-03-04T02:28:45.673Z,2.23
2023-03-04T02:31:23.749Z,2.26
2023-03-04T02:33:53.038Z,2.29
2023-03-04T02:36:22.112Z,2.28
2023-03-04T02:38:51.583Z,2.27
2023-03-04T02:41:25.444Z,2.28
2023-03-04T02:43:56.169Z,2.23
2023-03-04T02:46:24.703Z,2.23
2023-03-04T02:48:53.562Z,2.15
2023-03-04T02:51:22.327Z,2.09
2023-03-04T02:53:50.725Z,2.12
2023-03-04T02:56:19.068Z,2.15
2023-03-04T02:58:48.833Z,2.18
2023-03-04T03:01:17.132Z,2.19
2023-03-04T03:03:45.473Z,2.23
2023-03-04T03:06:13.866Z,2.24
2023-03-04T03:08:42.189Z,2.26
2023-03-04T03:11:10.485Z,2.24
2023-03-04T03:13:38.919Z,2.25
2023-03-04T03:16:08.707Z,2.25
2023-03-04T03:18:39.232Z,2.29
2023-03-04T03:21:07.508Z,2.33
2023-03-04T03:23:36.284Z,2.33
2023-03-04T03:26:04.904Z,2.20
2023-03-04T03:28:33.259Z,2.09
2023-03-04T03:31:01.612Z,2.05
2023-03-04T03:33:31.977Z,2.02
2023-03-04T03:36:01.230Z,2.00
2023-03-04T03:38:29.814Z,2.01
2023-03-04T03:40:58.211Z,2.01
2023-03-04T03:43:26.621Z,2.00
2023-03-04T03:45:54.972Z,1.98
2023-03-04T03:48:23.468Z,1.96
2023-03-04T03:50:53.180Z,1.95
2023-03-04T03:53:21.631Z,1.97
2023-03-04T03:55:50.082Z,1.94
2023-03-04T03:58:18.435Z,1.92
2023-03-04T04:00:46.764Z,1.98
2023-03-04T04:03:16.484Z,2.08
2023-03-04T04:05:45.038Z,2.15
2023-03-04T04:08:15.854Z,2.19
2023-03-04T04:10:44.911Z,2.24
2023-03-04T04:13:13.238Z,2.28
2023-03-04T04:15:41.568Z,2.28
2023-03-04T04:18:10.395Z,2.33
2023-03-04T04:20:38.729Z,2.39
2023-03-04T04:23:07.452Z,2.41
2023-03-04T04:25:37.185Z,2.44
2023-03-04T04:28:05.583Z,2.48
2023-03-04T04:30:33.955Z,2.51
2023-03-04T04:33:04.713Z,2.49
2023-03-04T04:35:34.070Z,2.51
2023-03-04T04:38:02.488Z,2.52
2023-03-04T04:40:31.120Z,2.52
2023-03-04T04:43:00.906Z,2.52
2023-03-04T04:45:29.387Z,2.49
2023-03-04T04:47:57.920Z,2.49
2023-03-04T04:50:26.721Z,2.47
2023-03-04T04:52:55.023Z,2.50
2023-03-04T04:55:23.386Z,2.52
2023-03-04T04:57:51.698Z,2.50
2023-03-04T05:00:22.355Z,2.47
2023-03-04T05:02:50.889Z,2.49
2023-03-04T05:05:19.252Z,2.46
2023-03-04T05:07:51.885Z,2.43
2023-03-04T05:10:20.578Z,2.42
2023-03-04T05:12:49.825Z,2.43
2023-03-04T05:15:18.420Z,2.46
2023-03-04T05:17:48.972Z,2.48
2023-03-04T05:20:17.719Z,2.48
2023-03-04T05:22:46.087Z,2.51
2023-03-04T05:25:14.401Z,2.56
2023-03-04T05:27:43.318Z,2.57
2023-03-04T05:30:13.276Z,2.60
2023-03-04T05:32:41.643Z,2.62
2023-03-04T05:35:11.634Z,2.68
2023-03-04T05:37:39.964Z,2.71
2023-03-04T05:40:10.321Z,2.74
2023-03-04T05:42:38.687Z,2.73
2023-03-04T05:45:08.309Z,2.75
2023-03-04T05:47:36.834Z,2.77
2023-03-04T05:50:05.456Z,2.80
2023-03-04T05:52:35.278Z,2.79
2023-03-04T05:55:03.605Z,2.81
2023-03-04T05:57:34.395Z,2.84
2023-03-04T06:00:05.427Z,2.83
2023-03-04T06:02:33.799Z,2.82
2023-03-04T06:05:02.157Z,2.83
2023-03-04T06:07:36.478Z,2.88
2023-03-04T06:10:05.186Z,2.92
2023-03-04T06:12:33.706Z,2.89
2023-03-04T06:15:02.906Z,2.82
2023-03-04T06:17:31.691Z,2.81
2023-03-04T06:20:00.039Z,2.84
2023-03-04T06:22:28.529Z,2.88
2023-03-04T06:24:58.190Z,2.88
2023-03-04T06:27:26.707Z,2.85
2023-03-04T06:29:55.089Z,2.86
2023-03-04T06:32:23.569Z,2.87
2023-03-04T06:34:51.975Z,2.86
2023-03-04T06:37:20.627Z,2.83
2023-03-04T06:39:48.948Z,2.83
2023-03-04T06:42:19.415Z,2.85
2023-03-04T06:44:49.410Z,2.85
2023-03-04T06:47:18.826Z,2.88
2023-03-04T06:49:47.190Z,2.92
2023-03-04T06:52:15.577Z,2.94
2023-03-04T06:54:43.997Z,2.91
2023-03-04T06:57:13.573Z,2.87
2023-03-04T06:59:43.321Z,2.89
2023-03-04T07:02:12.554Z,2.88
2023-03-04T07:04:41.569Z,2.89
2023-03-04T07:07:09.941Z,2.95
2023-03-04T07:09:38.345Z,3.03
2023-03-04T07:12:07.091Z,3.07
2023-03-04T07:14:35.458Z,3.12
2023-03-04T07:17:05.219Z,3.20
2023-03-04T07:19:33.526Z,3.30
2023-03-04T07:22:01.990Z,3.38
2023-03-04T07:24:30.336Z,3.38
2023-03-04T07:26:58.669Z,3.43
2023-03-04T07:29:27.104Z,3.48
2023-03-04T07:31:55.584Z,3.50
2023-03-04T07:34:25.365Z,3.53
2023-03-04T07:36:54.438Z,3.53
2023-03-04T07:39:22.885Z,3.57
2023-03-04T07:41:51.207Z,3.66
2023-03-04T07:44:19.616Z,3.75
2023-03-04T07:46:47.905Z,3.85
2023-03-04T07:49:16.387Z,3.92
2023-03-04T07:51:46.129Z,4.00
2023-03-04T07:54:14.564Z,4.04
2023-03-04T07:56:42.930Z,4.08
2023-03-04T07:59:11.396Z,4.12
2023-03-04T08:01:39.988Z,4.14
2023-03-04T08:04:09.112Z,4.22
2023-03-04T08:06:37.715Z,4.31
2023-03-04T08:09:09.894Z,4.39
2023-03-04T08:11:39.234Z,4.48
2023-03-04T08:14:09.227Z,4.57
2023-03-04T08:16:37.621Z,4.62
2023-03-04T08:19:07.244Z,4.60
2023-03-04T08:21:36.313Z,4.59
2023-03-04T08:24:08.610Z,4.57
2023-03-04T08:26:43.618Z,4.52
2023-03-04T08:29:13.949Z,4.53
2023-03-04T08:31:48.613Z,4.56
2023-03-04T08:34:18.353Z,4.62
2023-03-04T08:36:46.789Z,4.68
2023-03-04T08:39:17.366Z,4.68
2023-03-04T08:41:48.189Z,4.64
2023-03-04T08:44:16.972Z,4.60
2023-03-04T08:46:45.396Z,4.60
2023-03-04T08:49:14.664Z,4.60
2023-03-04T08:51:44.702Z,4.58
2023-03-04T08:54:13.417Z,4.54
2023-03-04T08:56:42.055Z,4.56
2023-03-04T08:59:11.889Z,4.58
2023-03-04T09:01:40.214Z,4.62
2023-03-04T09:04:08.629Z,4.68
2023-03-04T09:06:37.177Z,4.76
2023-03-04T09:09:06.159Z,4.83
2023-03-04T09:11:34.764Z,4.88
2023-03-04T09:14:03.094Z,4.98
2023-03-04T09:16:33.047Z,5.07
2023-03-04T09:19:01.770Z,5.16
2023-03-04T09:21:30.143Z,5.22
2023-03-04T09:23:58.477Z,5.24
2023-03-04T09:26:29.166Z,5.27
2023-03-04T09:28:59.882Z,5.30
2023-03-04T09:31:29.612Z,5.36
2023-03-04T09:34:00.558Z,5.42
2023-03-04T09:36:29.017Z,5.49
2023-03-04T09:39:00.677Z,5.57
2023-03-04T09:41:37.928Z,5.61
2023-03-04T09:44:15.411Z,5.63
2023-03-04T09:46:46.226Z,5.65
2023-03-04T09:49:17.455Z,5.69
2023-03-04T09:51:54.755Z,5.69
2023-03-04T09:54:35.086Z,5.73
2023-03-04T09:57:21.280Z,5.79
2023-03-04T09:59:57.843Z,5.91
2023-03-04T10:02:36.453Z,6.03
2023-03-04T10:05:08.909Z,6.04
2023-03-04T10:07:41.850Z,6.05
2023-03-04T10:10:16.667Z,6.08
2023-03-04T10:12:49.314Z,6.14
2023-03-04T10:15:28.266Z,6.23
2023-03-04T10:18:02.610Z,6.28
2023-03-04T10:20:45.507Z,6.37
2023-03-04T10:23:19.465Z,6.50
2023-03-04T10:25:53.959Z,6.66
2023-03-04T10:28:27.509Z,6.85
2023-03-04T10:31:01.564Z,7.03
2023-03-04T10:33:31.669Z,7.19
2023-03-04T10:36:06.429Z,7.40
2023-03-04T10:38:38.199Z,7.56
2023-03-04T10:41:14.754Z,7.68
2023-03-04T10:43:45.226Z,7.81
2023-03-04T10:46:13.932Z,7.90
2023-03-04T10:48:44.939Z,7.91
2023-03-04T10:51:21.527Z,7.99
2023-03-04T10:53:52.963Z,8.14
2023-03-04T10:56:39.045Z,8.30
2023-03-04T10:59:41.708Z,8.33
2023-03-04T11:02:20.720Z,8.32
2023-03-04T11:05:08.134Z,8.38
2023-03-04T11:07:54.413Z,8.46
2023-03-04T11:10:26.290Z,8.49
2023-03-04T11:13:01.951Z,8.47
2023-03-04T11:15:33.056Z,8.46
2023-03-04T11:18:05.272Z,8.45
2023-03-04T11:20:35.639Z,8.48
2023-03-04T11:23:12.342Z,8.60
2023-03-04T11:25:45.102Z,8.70
2023-03-04T11:28:19.354Z,8.90
2023-03-04T11:30:53.016Z,9.03
2023-03-04T11:33:28.793Z,9.11
2023-03-04T11:36:05.545Z,9.18
2023-03-04T11:38:40.502Z,9.23
2023-03-04T11:41:14.473Z,9.20
2023-03-04T11:43:45.649Z,9.10
2023-03-04T11:46:33.126Z,8.95
2023-03-04T11:49:16.048Z,8.83
2023-03-04T11:51:50.865Z,8.84
2023-03-04T11:54:32.045Z,8.90
2023-03-04T11:57:04.186Z,9.07
2023-03-04T11:59:48.975Z,9.22
2023-03-04T12:02:20.259Z,9.33
2023-03-04T12:05:06.290Z,9.43
2023-03-04T12:08:07.032Z,9.51
2023-03-04T12:10:45.621Z,9.37
2023-03-04T12:13:30.504Z,9.35
2023-03-04T12:16:12.533Z,9.42
2023-03-04T12:18:53.683Z,9.54
2023-03-04T12:21:36.423Z,9.65
2023-03-04T12:24:23.505Z,9.71
2023-03-04T12:27:02.788Z,9.75
2023-03-04T12:29:38.874Z,9.76
2023-03-04T12:32:18.808Z,9.75
2023-03-04T12:35:21.352Z,9.82
2023-03-04T12:38:04.201Z,9.87
2023-03-04T12:40:43.307Z,9.87
2023-03-04T12:43:28.504Z,9.81
2023-03-04T12:46:05.737Z,9.79
2023-03-04T12:48:40.567Z,9.75
2023-03-04T12:51:24.265Z,9.79
2023-03-04T12:54:02.818Z,9.68
2023-03-04T12:56:43.606Z,9.65
2023-03-04T12:59:18.117Z,9.75
2023-03-04T13:01:55.060Z,9.72
2023-03-04T13:04:29.281Z,9.66
2023-03-04T13:07:13.228Z,9.61
2023-03-04T13:09:49.389Z,9.61
2023-03-04T13:12:22.639Z,9.56
2023-03-04T13:15:29.387Z,9.49
2023-03-04T13:17:58.918Z,9.40
2023-03-04T13:20:36.356Z,9.34
2023-03-04T13:23:21.544Z,9.30
2023-03-04T13:25:51.231Z,9.35
2023-03-04T13:28:31.024Z,9.37
2023-03-04T13:31:28.284Z,9.49
2023-03-04T13:34:06.125Z,9.70
2023-03-04T13:36:56.607Z,9.85
2023-03-04T13:39:32.744Z,10.02
2023-03-04T13:42:02.601Z,10.23
2023-03-04T13:44:51.671Z,10.39
2023-03-04T13:47:31.481Z,10.44
2023-03-04T13:50:34.771Z,10.50
2023-03-04T13:53:24.770Z,10.65
2023-03-04T13:56:24.713Z,10.69
2023-03-04T13:59:03.151Z,10.70
2023-03-04T14:01:33.243Z,10.71
2023-03-04T14:04:11.707Z,10.63
2023-03-04T14:06:43.674Z,10.44
2023-03-04T14:09:15.653Z,10.21
2023-03-04T14:11:45.165Z,10.12
2023-03-04T14:14:16.152Z,10.03
2023-03-04T14:16:50.321Z,9.89
2023-03-04T14:19:26.349Z,9.78
2023-03-04T14:21:58.121Z,9.58
2023-03-04T14:24:26.719Z,9.53
2023-03-04T14:27:11.296Z,9.58
2023-03-04T14:29:39.718Z,9.75
2023-03-04T14:32:08.743Z,9.85
2023-03-04T14:34:40.115Z,9.92
2023-03-04T14:37:22.250Z,9.91
2023-03-04T14:39:55.124Z,9.93
2023-03-04T14:42:26.095Z,10.02
2023-03-04T14:44:59.463Z,10.13
2023-03-04T14:47:38.015Z,10.07
2023-03-04T14:50:14.497Z,10.05
2023-03-04T14:52:47.764Z,10.03
2023-03-04T14:55:23.582Z,9.98
2023-03-04T14:57:58.385Z,9.89
2023-03-04T15:00:30.839Z,9.86
2023-03-04T15:03:01.118Z,9.84
2023-03-04T15:05:33.184Z,9.80
2023-03-04T15:08:04.091Z,9.79
2023-03-04T15:10:34.841Z,9.79
2023-03-04T15:13:05.669Z,9.72
2023-03-04T15:15:43.765Z,9.69
2023-03-04T15:18:19.249Z,9.46
2023-03-04T15:20:56.226Z,9.22
2023-03-04T15:23:24.585Z,9.04
2023-03-04T15:25:54.770Z,8.92
2023-03-04T15:28:25.194Z,8.86
2023-03-04T15:30:54.516Z,8.76
2023-03-04T15:33:22.984Z,8.70
2023-03-04T15:35:57.269Z,8.60
2023-03-04T15:38:26.118Z,8.46
2023-03-04T15:40:55.609Z,8.40
2023-03-04T15:43:25.007Z,8.36
2023-03-04T15:45:54.190Z,8.26
2023-03-04T15:48:22.820Z,8.26
2023-03-04T15:50:56.642Z,8.25
2023-03-04T15:53:32.674Z,8.25
2023-03-04T15:56:01.975Z,8.26
2023-03-04T15:58:33.156Z,8.24
2023-03-04T16:01:03.865Z,8.26
2023-03-04T16:03:32.405Z,8.27
2023-03-04T16:06:02.493Z,8.29
2023-03-04T16:08:30.911Z,8.27
2023-03-04T16:10:59.350Z,8.25
2023-03-04T16:13:27.690Z,8.15
2023-03-04T16:15:56.261Z,8.07
2023-03-04T16:18:24.800Z,8.08
2023-03-04T16:20:53.441Z,8.05
2023-03-04T16:23:25.339Z,8.03
2023-03-04T16:25:57.279Z,7.98
2023-03-04T16:28:25.773Z,7.92
2023-03-04T16:30:54.223Z,7.82
2023-03-04T16:33:22.643Z,7.74
2023-03-04T16:35:52.316Z,7.64
2023-03-04T16:38:28.184Z,7.59
2023-03-04T16:40:57.786Z,7.53
2023-03-04T16:43:26.678Z,7.46
2023-03-04T16:45:55.114Z,7.35
2023-03-04T16:48:23.555Z,7.19
2023-03-04T16:50:52.452Z,7.08
2023-03-04T16:53:32.661Z,7.01
2023-03-04T16:56:07.392Z,6.94
2023-03-04T16:58:35.885Z,6.89
2023-03-04T17:01:04.690Z,6.87
2023-03-04T17:03:33.195Z,6.84
2023-03-04T17:06:01.584Z,6.80
2023-03-04T17:08:31.292Z,6.70
2023-03-04T17:10:59.613Z,6.66
2023-03-04T17:13:28.069Z,6.64
2023-03-04T17:15:56.454Z,6.57
2023-03-04T17:18:24.816Z,6.46
2023-03-04T17:20:53.146Z,6.40
2023-03-04T17:23:21.540Z,6.37
2023-03-04T17:25:58.057Z,6.29
2023-03-04T17:28:26.863Z,6.22
2023-03-04T17:30:55.558Z,6.17
2023-03-04T17:33:24.404Z,6.11
2023-03-04T17:35:52.724Z,6.05
2023-03-04T17:38:21.066Z,6.01
2023-03-04T17:40:49.440Z,5.99
2023-03-04T17:43:19.099Z,5.94
2023-03-04T17:45:47.498Z,5.89
2023-03-04T17:48:15.868Z,5.86
2023-03-04T17:50:50.070Z,5.77
2023-03-04T17:53:18.598Z,5.53
2023-03-04T17:55:50.597Z,5.36
2023-03-04T17:58:20.787Z,5.31
2023-03-04T18:00:50.727Z,5.34
2023-03-04T18:03:19.396Z,5.39
2023-03-04T18:05:47.762Z,5.40
2023-03-04T18:08:16.105Z,5.34
2023-03-04T18:10:44.566Z,5.28
2023-03-04T18:13:13.071Z,5.27
2023-03-04T18:15:42.769Z,5.27
2023-03-04T18:18:11.161Z,5.27
2023-03-04T18:20:39.575Z,5.21
2023-03-04T18:23:08.233Z,5.18
2023-03-04T18:25:36.962Z,5.12
2023-03-04T18:28:05.845Z,5.05
2023-03-04T18:30:34.281Z,4.96
2023-03-04T18:33:04.080Z,4.83
2023-03-04T18:35:32.682Z,4.86
2023-03-04T18:38:01.296Z,4.91
2023-03-04T18:40:30.122Z,4.97
2023-03-04T18:43:00.093Z,4.98
2023-03-04T18:45:29.079Z,4.99
2023-03-04T18:47:58.541Z,5.00
2023-03-04T18:50:28.614Z,4.99
2023-03-04T18:52:56.984Z,4.95
2023-03-04T18:55:26.672Z,4.88
2023-03-04T18:57:59.080Z,4.89
2023-03-04T19:00:27.480Z,4.89
2023-03-04T19:03:00.315Z,4.73
2023-03-04T19:05:33.027Z,4.68
2023-03-04T19:08:01.485Z,4.70
2023-03-04T19:10:30.003Z,4.71
2023-03-04T19:12:59.911Z,4.71
2023-03-04T19:15:28.343Z,4.72
2023-03-04T19:17:56.862Z,4.71
2023-03-04T19:20:25.327Z,4.66
2023-03-04T19:22:55.265Z,4.60
2023-03-04T19:25:23.610Z,4.49
2023-03-04T19:27:55.275Z,4.50
2023-03-04T19:30:24.396Z,4.54
2023-03-04T19:32:52.763Z,4.58
2023-03-04T19:35:21.177Z,4.59
2023-03-04T19:37:49.738Z,4.59
2023-03-04T19:40:21.035Z,4.59
2023-03-04T19:42:49.390Z,4.60
2023-03-04T19:45:18.070Z,4.60
2023-03-04T19:47:46.417Z,4.52
2023-03-04T19:50:16.202Z,4.46
2023-03-04T19:52:44.534Z,4.48
2023-03-04T19:55:13.785Z,4.51
2023-03-04T19:57:43.437Z,4.53
2023-03-04T20:00:13.438Z,4.57
2023-03-04T20:02:50.000Z,4.55
2023-03-04T20:05:18.504Z,4.43
2023-03-04T20:07:46.837Z,4.40
2023-03-04T20:10:15.576Z,4.42
2023-03-04T20:12:45.557Z,4.43
2023-03-04T20:15:13.869Z,4.38
2023-03-04T20:17:42.284Z,4.26
2023-03-04T20:20:12.493Z,4.28
2023-03-04T20:22:43.251Z,4.24
2023-03-04T20:25:11.594Z,4.30
2023-03-04T20:27:39.983Z,4.35
2023-03-04T20:30:11.585Z,4.29
2023-03-04T20:32:49.890Z,4.29
2023-03-04T20:35:18.437Z,4.32
2023-03-04T20:37:46.931Z,4.33
2023-03-04T20:40:15.355Z,4.37
2023-03-04T20:42:43.762Z,4.37
2023-03-04T20:45:13.735Z,4.40
2023-03-04T20:47:42.081Z,4.41
2023-03-04T20:50:11.720Z,4.37
2023-03-04T20:52:40.179Z,4.25
2023-03-04T20:55:09.403Z,4.23
2023-03-04T20:57:37.822Z,4.26
2023-03-04T21:00:08.205Z,4.26
2023-03-04T21:02:38.203Z,4.26
2023-03-04T21:05:07.893Z,4.30
2023-03-04T21:07:36.225Z,4.32
2023-03-04T21:10:05.983Z,4.24
2023-03-04T21:12:34.275Z,4.20
2023-03-04T21:15:02.603Z,4.16
2023-03-04T21:17:30.992Z,4.16
2023-03-04T21:20:00.716Z,4.17
2023-03-04T21:22:29.228Z,4.12
2023-03-04T21:24:57.823Z,4.13
2023-03-04T21:27:28.975Z,4.15
2023-03-04T21:29:57.350Z,4.17
2023-03-04T21:32:27.203Z,4.18
2023-03-04T21:34:56.288Z,4.17
2023-03-04T21:37:30.653Z,4.13
2023-03-04T21:40:01.398Z,4.12
2023-03-04T21:42:29.771Z,4.13
2023-03-04T21:44:58.140Z,4.10
2023-03-04T21:47:26.568Z,4.12
2023-03-04T21:49:54.945Z,4.10
2023-03-04T21:52:23.509Z,4.06
2023-03-04T21:54:53.249Z,4.01
2023-03-04T21:57:21.602Z,4.05
2023-03-04T21:59:50.260Z,4.09
2023-03-04T22:02:21.190Z,4.10
2023-03-04T22:04:49.627Z,4.13
2023-03-04T22:07:18.233Z,4.13
2023-03-04T22:09:46.838Z,4.09
2023-03-04T22:12:19.164Z,4.09
2023-03-04T22:14:48.064Z,4.10
2023-03-04T22:17:16.556Z,4.13
2023-03-04T22:19:44.948Z,4.08
2023-03-04T22:22:13.422Z,4.03
2023-03-04T22:24:41.803Z,3.95
2023-03-04T22:27:10.132Z,3.93
2023-03-04T22:29:39.910Z,3.88
2023-03-04T22:32:08.491Z,3.83
2023-03-04T22:34:36.898Z,3.74
2023-03-04T22:37:05.472Z,3.72
2023-03-04T22:39:33.882Z,3.71
2023-03-04T22:42:02.191Z,3.74
2023-03-04T22:44:30.555Z,3.66
2023-03-04T22:47:00.254Z,3.47
2023-03-04T22:49:28.594Z,3.40
2023-03-04T22:51:56.945Z,3.34
2023-03-04T22:54:27.215Z,3.27
2023-03-04T22:56:55.532Z,3.23
2023-03-04T22:59:23.934Z,3.22
2023-03-04T23:01:52.359Z,3.20
2023-03-04T23:04:22.681Z,3.20
2023-03-04T23:06:51.069Z,3.20
2023-03-04T23:09:19.385Z,3.22
2023-03-04T23:11:47.753Z,3.15
2023-03-04T23:14:16.123Z,3.13
2023-03-04T23:16:44.627Z,3.20
2023-03-04T23:19:14.824Z,3.25
2023-03-04T23:21:45.336Z,3.27
2023-03-04T23:24:14.541Z,3.26
2023-03-04T23:26:43.845Z,3.34
2023-03-04T23:29:16.560Z,3.43
2023-03-04T23:31:45.310Z,3.35
2023-03-04T23:34:14.334Z,3.22
2023-03-04T23:36:44.062Z,3.10
2023-03-04T23:39:13.245Z,3.05
2023-03-04T23:41:44.006Z,3.05
2023-03-04T23:44:14.073Z,3.02
2023-03-04T23:46:42.588Z,3.01
2023-03-04T23:49:14.015Z,3.00
2023-03-04T23:51:44.326Z,3.09
2023-03-04T23:54:13.200Z,3.17
2023-03-04T23:56:42.064Z,3.17
2023-03-04T23:59:11.840Z,3.17
